sensor_id;sensor_type;location;lat;lon;timestamp;P1;durP1;ratioP1;P2;durP2;ratioP2
1831;SDS011;1680;48.106;11.708;2022-09-27T00:01:34;1.70;;;1.60;;
1831;SDS011;1680;48.106;11.708;2022-09-27T00:04:01;2.07;;;1.90;;
1831;SDS011;1680;48.106;11.708;2022-09-27T00:06:28;1.90;;;1.80;;
1831;SDS011;1680;48.106;11.708;2022-09-27T00:08:55;2.03;;;1.83;;
1831;SDS011;1680;48.106;11.708;2022-09-27T00:11:23;1.70;;;1.60;;
1831;SDS011;1680;48.106;11.708;2022-09-27T00:13:52;2.10;;;2.00;;
1831;SDS011;1680;48.106;11.708;2022-09-27T00:16:20;2.23;;;2.03;;
1831;SDS011;1680;48.106;11.708;2022-09-27T00:18:46;2.00;;;1.80;;
1831;SDS011;1680;48.106;11.708;2022-09-27T00:21:13;2.57;;;1.63;;
1831;SDS011;1680;48.106;11.708;2022-09-27T00:23:40;1.87;;;1.77;;
1831;SDS011;1680;48.106;11.708;2022-09-27T00:26:07;1.73;;;1.63;;
1831;SDS011;1680;48.106;11.708;2022-09-27T00:28:36;1.67;;;1.57;;
1831;SDS011;1680;48.106;11.708;2022-09-27T00:31:04;1.60;;;1.50;;
1831;SDS011;1680;48.106;11.708;2022-09-27T00:33:36;1.80;;;1.60;;
1831;SDS011;1680;48.106;11.708;2022-09-27T00:36:03;1.90;;;1.70;;
1831;SDS011;1680;48.106;11.708;2022-09-27T00:38:31;1.97;;;1.80;;
1831;SDS011;1680;48.106;11.708;2022-09-27T00:40:57;4.13;;;1.70;;
1831;SDS011;1680;48.106;11.708;2022-09-27T00:43:24;2.13;;;2.00;;
1831;SDS011;1680;48.106;11.708;2022-09-27T00:45:51;1.90;;;1.53;;
1831;SDS011;1680;48.106;11.708;2022-09-27T00:48:20;1.73;;;1.63;;
1831;SDS011;1680;48.106;11.708;2022-09-27T00:50:49;1.90;;;1.77;;
1831;SDS011;1680;48.106;11.708;2022-09-27T00:53:19;1.83;;;1.73;;
1831;SDS011;1680;48.106;11.708;2022-09-27T00:55:48;2.30;;;2.20;;
1831;SDS011;1680;48.106;11.708;2022-09-27T00:58:16;3.00;;;1.97;;
1831;SDS011;1680;48.106;11.708;2022-09-27T01:00:44;2.10;;;1.90;;
1831;SDS011;1680;48.106;11.708;2022-09-27T01:03:12;2.33;;;2.13;;
1831;SDS011;1680;48.106;11.708;2022-09-27T01:05:42;2.37;;;2.17;;
1831;SDS011;1680;48.106;11.708;2022-09-27T01:08:09;2.70;;;2.37;;
1831;SDS011;1680;48.106;11.708;2022-09-27T01:10:39;2.80;;;1.80;;
1831;SDS011;1680;48.106;11.708;2022-09-27T01:13:11;4.50;;;2.17;;
1831;SDS011;1680;48.106;11.708;2022-09-27T01:15:42;2.20;;;2.10;;
1831;SDS011;1680;48.106;11.708;2022-09-27T01:18:16;2.40;;;1.93;;
1831;SDS011;1680;48.106;11.708;2022-09-27T01:23:45;7.70;;;1.93;;
1831;SDS011;1680;48.106;11.708;2022-09-27T01:26:15;1.90;;;1.80;;
1831;SDS011;1680;48.106;11.708;2022-09-27T01:28:50;1.87;;;1.70;;
1831;SDS011;1680;48.106;11.708;2022-09-27T01:31:23;2.00;;;1.80;;
1831;SDS011;1680;48.106;11.708;2022-09-27T01:33:52;1.97;;;1.87;;
1831;SDS011;1680;48.106;11.708;2022-09-27T01:36:27;2.23;;;2.03;;
1831;SDS011;1680;48.106;11.708;2022-09-27T01:38:56;2.30;;;2.10;;
1831;SDS011;1680;48.106;11.708;2022-09-27T01:41:29;2.00;;;1.87;;
1831;SDS011;1680;48.106;11.708;2022-09-27T01:43:59;1.90;;;1.80;;
1831;SDS011;1680;48.106;11.708;2022-09-27T01:46:30;1.97;;;1.70;;
1831;SDS011;1680;48.106;11.708;2022-09-27T01:48:59;2.53;;;2.10;;
1831;SDS011;1680;48.106;11.708;2022-09-27T01:51:29;2.03;;;1.83;;
1831;SDS011;1680;48.106;11.708;2022-09-27T01:53:57;2.00;;;1.90;;
1831;SDS011;1680;48.106;11.708;2022-09-27T01:56:29;1.83;;;1.63;;
1831;SDS011;1680;48.106;11.708;2022-09-27T01:59:03;2.27;;;2.07;;
1831;SDS011;1680;48.106;11.708;2022-09-27T02:01:32;2.60;;;2.23;;
1831;SDS011;1680;48.106;11.708;2022-09-27T02:04:00;1.87;;;1.73;;
1831;SDS011;1680;48.106;11.708;2022-09-27T02:06:28;3.97;;;1.87;;
1831;SDS011;1680;48.106;11.708;2022-09-27T02:08:57;2.07;;;1.93;;
1831;SDS011;1680;48.106;11.708;2022-09-27T02:11:24;3.67;;;2.20;;
1831;SDS011;1680;48.106;11.708;2022-09-27T02:13:52;2.00;;;1.90;;
1831;SDS011;1680;48.106;11.708;2022-09-27T02:16:22;2.80;;;2.30;;
1831;SDS011;1680;48.106;11.708;2022-09-27T02:18:52;2.93;;;2.20;;
1831;SDS011;1680;48.106;11.708;2022-09-27T02:21:21;3.87;;;2.20;;
1831;SDS011;1680;48.106;11.708;2022-09-27T02:23:51;2.17;;;1.97;;
1831;SDS011;1680;48.106;11.708;2022-09-27T02:26:21;1.93;;;1.83;;
1831;SDS011;1680;48.106;11.708;2022-09-27T02:28:51;2.63;;;2.30;;
1831;SDS011;1680;48.106;11.708;2022-09-27T02:31:22;2.30;;;2.10;;
1831;SDS011;1680;48.106;11.708;2022-09-27T02:33:49;3.13;;;2.07;;
1831;SDS011;1680;48.106;11.708;2022-09-27T02:36:19;2.57;;;2.23;;
1831;SDS011;1680;48.106;11.708;2022-09-27T02:38:46;2.30;;;2.10;;
1831;SDS011;1680;48.106;11.708;2022-09-27T02:41:13;2.53;;;2.33;;
1831;SDS011;1680;48.106;11.708;2022-09-27T02:43:40;2.80;;;2.17;;
1831;SDS011;1680;48.106;11.708;2022-09-27T02:46:13;2.50;;;1.90;;
1831;SDS011;1680;48.106;11.708;2022-09-27T02:48:43;4.20;;;2.07;;
1831;SDS011;1680;48.106;11.708;2022-09-27T02:51:24;3.00;;;2.30;;
1831;SDS011;1680;48.106;11.708;2022-09-27T02:53:55;3.37;;;2.80;;
1831;SDS011;1680;48.106;11.708;2022-09-27T02:56:25;2.37;;;2.17;;
1831;SDS011;1680;48.106;11.708;2022-09-27T02:58:57;3.87;;;2.50;;
1831;SDS011;1680;48.106;11.708;2022-09-27T03:01:26;2.10;;;2.00;;
1831;SDS011;1680;48.106;11.708;2022-09-27T03:03:58;4.40;;;2.90;;
1831;SDS011;1680;48.106;11.708;2022-09-27T03:06:27;2.30;;;2.10;;
1831;SDS011;1680;48.106;11.708;2022-09-27T03:08:54;2.30;;;2.10;;
1831;SDS011;1680;48.106;11.708;2022-09-27T03:11:22;2.23;;;1.90;;
1831;SDS011;1680;48.106;11.708;2022-09-27T03:13:48;2.27;;;2.10;;
1831;SDS011;1680;48.106;11.708;2022-09-27T03:16:15;2.20;;;2.10;;
1831;SDS011;1680;48.106;11.708;2022-09-27T03:18:42;2.60;;;2.40;;
1831;SDS011;1680;48.106;11.708;2022-09-27T03:21:08;3.23;;;2.30;;
1831;SDS011;1680;48.106;11.708;2022-09-27T03:23:36;3.80;;;3.50;;
1831;SDS011;1680;48.106;11.708;2022-09-27T03:26:03;3.20;;;2.50;;
1831;SDS011;1680;48.106;11.708;2022-09-27T03:28:30;2.63;;;2.40;;
1831;SDS011;1680;48.106;11.708;2022-09-27T03:30:56;2.40;;;2.20;;
1831;SDS011;1680;48.106;11.708;2022-09-27T03:33:23;2.10;;;2.00;;
1831;SDS011;1680;48.106;11.708;2022-09-27T03:35:50;2.43;;;2.23;;
1831;SDS011;1680;48.106;11.708;2022-09-27T03:38:16;2.50;;;2.30;;
1831;SDS011;1680;48.106;11.708;2022-09-27T03:40:44;2.63;;;2.43;;
1831;SDS011;1680;48.106;11.708;2022-09-27T03:43:11;1.87;;;1.77;;
1831;SDS011;1680;48.106;11.708;2022-09-27T03:45:38;2.67;;;2.13;;
1831;SDS011;1680;48.106;11.708;2022-09-27T03:48:05;2.40;;;2.20;;
1831;SDS011;1680;48.106;11.708;2022-09-27T03:50:32;1.90;;;1.80;;
1831;SDS011;1680;48.106;11.708;2022-09-27T03:52:58;2.20;;;2.10;;
1831;SDS011;1680;48.106;11.708;2022-09-27T03:55:25;2.63;;;2.43;;
1831;SDS011;1680;48.106;11.708;2022-09-27T03:57:53;2.00;;;1.90;;
1831;SDS011;1680;48.106;11.708;2022-09-27T04:00:20;2.40;;;2.20;;
1831;SDS011;1680;48.106;11.708;2022-09-27T04:02:47;2.80;;;2.50;;
1831;SDS011;1680;48.106;11.708;2022-09-27T04:05:13;2.30;;;2.00;;
1831;SDS011;1680;48.106;11.708;2022-09-27T04:07:44;2.40;;;2.20;;
1831;SDS011;1680;48.106;11.708;2022-09-27T04:10:11;2.30;;;2.10;;
1831;SDS011;1680;48.106;11.708;2022-09-27T04:12:39;2.30;;;2.10;;
1831;SDS011;1680;48.106;11.708;2022-09-27T04:15:07;2.47;;;2.27;;
1831;SDS011;1680;48.106;11.708;2022-09-27T04:17:34;2.10;;;2.00;;
1831;SDS011;1680;48.106;11.708;2022-09-27T04:20:01;1.80;;;1.70;;
1831;SDS011;1680;48.106;11.708;2022-09-27T04:22:28;2.27;;;2.07;;
1831;SDS011;1680;48.106;11.708;2022-09-27T04:24:55;4.03;;;1.73;;
1831;SDS011;1680;48.106;11.708;2022-09-27T04:27:22;2.07;;;1.87;;
1831;SDS011;1680;48.106;11.708;2022-09-27T04:29:48;1.90;;;1.80;;
1831;SDS011;1680;48.106;11.708;2022-09-27T04:32:17;2.13;;;1.93;;
1831;SDS011;1680;48.106;11.708;2022-09-27T04:34:43;2.60;;;2.40;;
1831;SDS011;1680;48.106;11.708;2022-09-27T04:37:27;2.83;;;2.50;;
1831;SDS011;1680;48.106;11.708;2022-09-27T04:39:54;2.30;;;2.10;;
1831;SDS011;1680;48.106;11.708;2022-09-27T04:42:21;2.40;;;2.20;;
1831;SDS011;1680;48.106;11.708;2022-09-27T04:44:47;3.17;;;2.10;;
1831;SDS011;1680;48.106;11.708;2022-09-27T04:47:15;2.23;;;2.03;;
1831;SDS011;1680;48.106;11.708;2022-09-27T04:49:43;2.70;;;2.23;;
1831;SDS011;1680;48.106;11.708;2022-09-27T04:52:10;2.43;;;2.23;;
1831;SDS011;1680;48.106;11.708;2022-09-27T04:54:37;2.53;;;2.33;;
1831;SDS011;1680;48.106;11.708;2022-09-27T04:57:03;2.70;;;2.50;;
1831;SDS011;1680;48.106;11.708;2022-09-27T04:59:30;2.43;;;2.23;;
1831;SDS011;1680;48.106;11.708;2022-09-27T05:01:57;2.70;;;2.50;;
1831;SDS011;1680;48.106;11.708;2022-09-27T05:04:25;2.47;;;2.27;;
1831;SDS011;1680;48.106;11.708;2022-09-27T05:06:53;2.13;;;2.03;;
1831;SDS011;1680;48.106;11.708;2022-09-27T05:09:19;3.13;;;2.30;;
1831;SDS011;1680;48.106;11.708;2022-09-27T05:11:47;2.50;;;2.30;;
1831;SDS011;1680;48.106;11.708;2022-09-27T05:14:14;3.07;;;2.30;;
1831;SDS011;1680;48.106;11.708;2022-09-27T05:16:41;2.60;;;2.40;;
1831;SDS011;1680;48.106;11.708;2022-09-27T05:19:08;2.60;;;2.10;;
1831;SDS011;1680;48.106;11.708;2022-09-27T05:21:35;3.17;;;2.50;;
1831;SDS011;1680;48.106;11.708;2022-09-27T05:24:03;2.40;;;2.20;;
1831;SDS011;1680;48.106;11.708;2022-09-27T05:26:30;2.40;;;2.20;;
1831;SDS011;1680;48.106;11.708;2022-09-27T05:28:57;2.80;;;2.60;;
1831;SDS011;1680;48.106;11.708;2022-09-27T05:31:23;4.43;;;2.30;;
1831;SDS011;1680;48.106;11.708;2022-09-27T05:33:51;2.80;;;2.40;;
1831;SDS011;1680;48.106;11.708;2022-09-27T05:36:18;3.33;;;2.13;;
1831;SDS011;1680;48.106;11.708;2022-09-27T05:38:45;2.00;;;1.80;;
1831;SDS011;1680;48.106;11.708;2022-09-27T05:41:14;1.90;;;1.80;;
1831;SDS011;1680;48.106;11.708;2022-09-27T05:43:41;2.07;;;1.77;;
1831;SDS011;1680;48.106;11.708;2022-09-27T05:46:07;1.73;;;1.63;;
1831;SDS011;1680;48.106;11.708;2022-09-27T05:48:34;2.40;;;1.70;;
1831;SDS011;1680;48.106;11.708;2022-09-27T05:51:01;2.80;;;1.63;;
1831;SDS011;1680;48.106;11.708;2022-09-27T05:53:28;1.90;;;1.80;;
1831;SDS011;1680;48.106;11.708;2022-09-27T05:55:59;1.30;;;1.20;;
1831;SDS011;1680;48.106;11.708;2022-09-27T05:58:27;1.60;;;1.50;;
1831;SDS011;1680;48.106;11.708;2022-09-27T06:00:54;1.50;;;1.40;;
1831;SDS011;1680;48.106;11.708;2022-09-27T06:03:20;1.30;;;1.20;;
1831;SDS011;1680;48.106;11.708;2022-09-27T06:05:47;1.37;;;1.27;;
1831;SDS011;1680;48.106;11.708;2022-09-27T06:08:14;2.20;;;1.20;;
1831;SDS011;1680;48.106;11.708;2022-09-27T06:10:41;1.07;;;1.00;;
1831;SDS011;1680;48.106;11.708;2022-09-27T06:13:09;1.20;;;0.93;;
1831;SDS011;1680;48.106;11.708;2022-09-27T06:15:37;1.40;;;1.30;;
1831;SDS011;1680;48.106;11.708;2022-09-27T06:18:05;1.33;;;1.10;;
1831;SDS011;1680;48.106;11.708;2022-09-27T06:20:32;2.23;;;1.10;;
1831;SDS011;1680;48.106;11.708;2022-09-27T06:23:08;0.90;;;0.87;;
1831;SDS011;1680;48.106;11.708;2022-09-27T06:25:35;2.43;;;1.20;;
1831;SDS011;1680;48.106;11.708;2022-09-27T06:28:02;1.10;;;0.90;;
1831;SDS011;1680;48.106;11.708;2022-09-27T06:30:29;1.50;;;0.93;;
1831;SDS011;1680;48.106;11.708;2022-09-27T06:32:58;1.77;;;1.03;;
1831;SDS011;1680;48.106;11.708;2022-09-27T06:35:24;1.17;;;1.00;;
1831;SDS011;1680;48.106;11.708;2022-09-27T06:37:51;1.40;;;0.93;;
1831;SDS011;1680;48.106;11.708;2022-09-27T06:40:17;1.20;;;0.80;;
1831;SDS011;1680;48.106;11.708;2022-09-27T06:42:44;1.53;;;0.90;;
1831;SDS011;1680;48.106;11.708;2022-09-27T06:45:11;1.20;;;0.73;;
1831;SDS011;1680;48.106;11.708;2022-09-27T06:47:38;1.50;;;1.03;;
1831;SDS011;1680;48.106;11.708;2022-09-27T06:50:06;1.13;;;0.97;;
1831;SDS011;1680;48.106;11.708;2022-09-27T06:52:33;0.97;;;0.80;;
1831;SDS011;1680;48.106;11.708;2022-09-27T06:55:01;1.90;;;1.00;;
1831;SDS011;1680;48.106;11.708;2022-09-27T06:57:27;0.80;;;0.80;;
1831;SDS011;1680;48.106;11.708;2022-09-27T07:00:12;1.10;;;1.00;;
1831;SDS011;1680;48.106;11.708;2022-09-27T07:02:52;1.00;;;0.77;;
1831;SDS011;1680;48.106;11.708;2022-09-27T07:05:20;1.23;;;1.00;;
1831;SDS011;1680;48.106;11.708;2022-09-27T07:07:47;1.40;;;0.97;;
1831;SDS011;1680;48.106;11.708;2022-09-27T07:10:14;0.93;;;0.70;;
1831;SDS011;1680;48.106;11.708;2022-09-27T07:12:42;1.40;;;1.30;;
1831;SDS011;1680;48.106;11.708;2022-09-27T07:15:12;1.23;;;1.13;;
1831;SDS011;1680;48.106;11.708;2022-09-27T07:17:39;2.10;;;0.90;;
1831;SDS011;1680;48.106;11.708;2022-09-27T07:20:06;1.20;;;1.10;;
1831;SDS011;1680;48.106;11.708;2022-09-27T07:22:39;1.47;;;1.10;;
1831;SDS011;1680;48.106;11.708;2022-09-27T07:25:06;1.47;;;1.20;;
1831;SDS011;1680;48.106;11.708;2022-09-27T07:27:33;1.87;;;1.33;;
1831;SDS011;1680;48.106;11.708;2022-09-27T07:29:59;1.60;;;1.47;;
1831;SDS011;1680;48.106;11.708;2022-09-27T07:32:26;1.57;;;1.27;;
1831;SDS011;1680;48.106;11.708;2022-09-27T07:34:53;2.30;;;1.77;;
1831;SDS011;1680;48.106;11.708;2022-09-27T07:37:19;1.90;;;1.10;;
1831;SDS011;1680;48.106;11.708;2022-09-27T07:39:48;1.33;;;1.23;;
1831;SDS011;1680;48.106;11.708;2022-09-27T07:42:14;1.70;;;1.23;;
1831;SDS011;1680;48.106;11.708;2022-09-27T07:44:41;2.93;;;1.30;;
1831;SDS011;1680;48.106;11.708;2022-09-27T07:47:07;1.40;;;1.30;;
1831;SDS011;1680;48.106;11.708;2022-09-27T07:49:35;1.60;;;1.23;;
1831;SDS011;1680;48.106;11.708;2022-09-27T07:52:01;1.53;;;1.00;;
1831;SDS011;1680;48.106;11.708;2022-09-27T07:54:28;2.30;;;1.07;;
1831;SDS011;1680;48.106;11.708;2022-09-27T07:56:56;3.97;;;1.27;;
1831;SDS011;1680;48.106;11.708;2022-09-27T07:59:22;2.00;;;1.23;;
1831;SDS011;1680;48.106;11.708;2022-09-27T08:01:49;2.93;;;1.30;;
1831;SDS011;1680;48.106;11.708;2022-09-27T08:04:16;2.50;;;1.10;;
1831;SDS011;1680;48.106;11.708;2022-09-27T08:06:42;1.10;;;0.90;;
1831;SDS011;1680;48.106;11.708;2022-09-27T08:09:09;1.30;;;0.80;;
1831;SDS011;1680;48.106;11.708;2022-09-27T08:11:36;0.80;;;0.80;;
1831;SDS011;1680;48.106;11.708;2022-09-27T08:14:04;1.07;;;0.87;;
1831;SDS011;1680;48.106;11.708;2022-09-27T08:16:31;0.80;;;0.80;;
1831;SDS011;1680;48.106;11.708;2022-09-27T08:18:58;1.17;;;0.80;;
1831;SDS011;1680;48.106;11.708;2022-09-27T08:21:25;0.73;;;0.73;;
1831;SDS011;1680;48.106;11.708;2022-09-27T08:23:52;0.70;;;0.70;;
1831;SDS011;1680;48.106;11.708;2022-09-27T08:26:19;0.93;;;0.80;;
1831;SDS011;1680;48.106;11.708;2022-09-27T08:28:46;1.70;;;0.80;;
1831;SDS011;1680;48.106;11.708;2022-09-27T08:31:14;0.70;;;0.70;;
1831;SDS011;1680;48.106;11.708;2022-09-27T08:33:40;1.23;;;0.90;;
1831;SDS011;1680;48.106;11.708;2022-09-27T08:36:09;0.63;;;0.60;;
1831;SDS011;1680;48.106;11.708;2022-09-27T08:38:36;0.60;;;0.57;;
1831;SDS011;1680;48.106;11.708;2022-09-27T08:41:04;0.60;;;0.60;;
1831;SDS011;1680;48.106;11.708;2022-09-27T08:43:33;0.60;;;0.60;;
1831;SDS011;1680;48.106;11.708;2022-09-27T08:46:07;0.60;;;0.60;;
1831;SDS011;1680;48.106;11.708;2022-09-27T08:48:37;0.70;;;0.70;;
1831;SDS011;1680;48.106;11.708;2022-09-27T08:51:05;1.67;;;0.93;;
1831;SDS011;1680;48.106;11.708;2022-09-27T08:53:33;0.70;;;0.70;;
1831;SDS011;1680;48.106;11.708;2022-09-27T08:56:02;1.13;;;0.80;;
1831;SDS011;1680;48.106;11.708;2022-09-27T08:58:29;1.00;;;0.80;;
1831;SDS011;1680;48.106;11.708;2022-09-27T09:00:58;0.80;;;0.80;;
1831;SDS011;1680;48.106;11.708;2022-09-27T09:03:27;0.60;;;0.60;;
1831;SDS011;1680;48.106;11.708;2022-09-27T09:06:03;1.50;;;0.83;;
1831;SDS011;1680;48.106;11.708;2022-09-27T09:08:33;1.10;;;0.63;;
1831;SDS011;1680;48.106;11.708;2022-09-27T09:11:04;2.10;;;0.87;;
1831;SDS011;1680;48.106;11.708;2022-09-27T09:16:42;1.57;;;0.87;;
1831;SDS011;1680;48.106;11.708;2022-09-27T09:21:58;0.70;;;0.70;;
1831;SDS011;1680;48.106;11.708;2022-09-27T09:24:35;0.70;;;0.70;;
1831;SDS011;1680;48.106;11.708;2022-09-27T09:27:04;0.80;;;0.77;;
1831;SDS011;1680;48.106;11.708;2022-09-27T09:29:38;2.67;;;1.47;;
1831;SDS011;1680;48.106;11.708;2022-09-27T09:32:15;1.10;;;0.90;;
1831;SDS011;1680;48.106;11.708;2022-09-27T09:34:46;1.00;;;0.80;;
1831;SDS011;1680;48.106;11.708;2022-09-27T09:37:17;0.80;;;0.80;;
1831;SDS011;1680;48.106;11.708;2022-09-27T09:39:46;1.40;;;0.90;;
1831;SDS011;1680;48.106;11.708;2022-09-27T09:42:16;0.70;;;0.70;;
1831;SDS011;1680;48.106;11.708;2022-09-27T09:44:46;0.80;;;0.70;;
1831;SDS011;1680;48.106;11.708;2022-09-27T09:47:23;1.23;;;0.80;;
1831;SDS011;1680;48.106;11.708;2022-09-27T09:49:52;1.50;;;0.80;;
1831;SDS011;1680;48.106;11.708;2022-09-27T09:52:22;0.93;;;0.93;;
1831;SDS011;1680;48.106;11.708;2022-09-27T09:54:51;1.27;;;0.83;;
1831;SDS011;1680;48.106;11.708;2022-09-27T09:57:21;0.93;;;0.70;;
1831;SDS011;1680;48.106;11.708;2022-09-27T09:59:51;0.83;;;0.83;;
1831;SDS011;1680;48.106;11.708;2022-09-27T10:02:22;2.20;;;0.70;;
1831;SDS011;1680;48.106;11.708;2022-09-27T10:04:51;0.73;;;0.73;;
1831;SDS011;1680;48.106;11.708;2022-09-27T10:07:18;0.93;;;0.83;;
1831;SDS011;1680;48.106;11.708;2022-09-27T10:09:48;1.47;;;0.70;;
1831;SDS011;1680;48.106;11.708;2022-09-27T10:12:16;0.73;;;0.73;;
1831;SDS011;1680;48.106;11.708;2022-09-27T10:14:43;0.70;;;0.70;;
1831;SDS011;1680;48.106;11.708;2022-09-27T10:17:11;2.20;;;0.90;;
1831;SDS011;1680;48.106;11.708;2022-09-27T10:19:40;0.80;;;0.80;;
1831;SDS011;1680;48.106;11.708;2022-09-27T10:22:10;2.13;;;0.83;;
1831;SDS011;1680;48.106;11.708;2022-09-27T10:24:51;0.80;;;0.60;;
1831;SDS011;1680;48.106;11.708;2022-09-27T10:27:19;0.80;;;0.80;;
1831;SDS011;1680;48.106;11.708;2022-09-27T10:29:47;2.70;;;0.70;;
1831;SDS011;1680;48.106;11.708;2022-09-27T10:32:23;1.80;;;0.80;;
1831;SDS011;1680;48.106;11.708;2022-09-27T10:34:51;1.60;;;0.87;;
1831;SDS011;1680;48.106;11.708;2022-09-27T10:37:19;0.80;;;0.60;;
1831;SDS011;1680;48.106;11.708;2022-09-27T10:39:47;0.70;;;0.70;;
1831;SDS011;1680;48.106;11.708;2022-09-27T10:42:30;0.80;;;0.80;;
1831;SDS011;1680;48.106;11.708;2022-09-27T10:44:57;1.20;;;0.80;;
1831;SDS011;1680;48.106;11.708;2022-09-27T10:47:24;2.93;;;0.70;;
1831;SDS011;1680;48.106;11.708;2022-09-27T10:49:51;1.00;;;0.80;;
1831;SDS011;1680;48.106;11.708;2022-09-27T10:52:27;1.10;;;1.00;;
1831;SDS011;1680;48.106;11.708;2022-09-27T10:54:54;0.80;;;0.80;;
1831;SDS011;1680;48.106;11.708;2022-09-27T10:57:23;1.10;;;0.90;;
1831;SDS011;1680;48.106;11.708;2022-09-27T10:59:50;1.00;;;0.90;;
1831;SDS011;1680;48.106;11.708;2022-09-27T11:02:18;1.40;;;0.90;;
1831;SDS011;1680;48.106;11.708;2022-09-27T11:05:01;1.10;;;1.00;;
1831;SDS011;1680;48.106;11.708;2022-09-27T11:07:27;0.80;;;0.80;;
1831;SDS011;1680;48.106;11.708;2022-09-27T11:09:55;0.80;;;0.80;;
1831;SDS011;1680;48.106;11.708;2022-09-27T11:12:28;6.03;;;1.50;;
1831;SDS011;1680;48.106;11.708;2022-09-27T11:14:57;1.50;;;1.40;;
1831;SDS011;1680;48.106;11.708;2022-09-27T11:17:25;1.40;;;1.10;;
1831;SDS011;1680;48.106;11.708;2022-09-27T11:22:45;0.87;;;0.87;;
1831;SDS011;1680;48.106;11.708;2022-09-27T11:25:15;1.73;;;1.40;;
1831;SDS011;1680;48.106;11.708;2022-09-27T11:27:47;2.03;;;1.87;;
1831;SDS011;1680;48.106;11.708;2022-09-27T11:30:18;1.73;;;1.43;;
1831;SDS011;1680;48.106;11.708;2022-09-27T11:32:49;2.10;;;1.20;;
1831;SDS011;1680;48.106;11.708;2022-09-27T11:35:29;1.07;;;1.07;;
1831;SDS011;1680;48.106;11.708;2022-09-27T11:38:01;1.10;;;1.00;;
1831;SDS011;1680;48.106;11.708;2022-09-27T11:40:34;0.90;;;0.90;;
1831;SDS011;1680;48.106;11.708;2022-09-27T11:43:12;1.43;;;0.70;;
1831;SDS011;1680;48.106;11.708;2022-09-27T11:45:47;0.90;;;0.90;;
1831;SDS011;1680;48.106;11.708;2022-09-27T11:48:17;1.17;;;0.83;;
1831;SDS011;1680;48.106;11.708;2022-09-27T11:50:51;0.97;;;0.90;;
1831;SDS011;1680;48.106;11.708;2022-09-27T11:53:31;1.60;;;1.00;;
1831;SDS011;1680;48.106;11.708;2022-09-27T11:56:02;1.30;;;1.20;;
1831;SDS011;1680;48.106;11.708;2022-09-27T11:58:35;1.00;;;1.00;;
1831;SDS011;1680;48.106;11.708;2022-09-27T12:01:09;1.10;;;1.00;;
1831;SDS011;1680;48.106;11.708;2022-09-27T12:03:42;1.27;;;1.17;;
1831;SDS011;1680;48.106;11.708;2022-09-27T12:06:15;0.93;;;0.80;;
1831;SDS011;1680;48.106;11.708;2022-09-27T12:08:47;0.70;;;0.67;;
1831;SDS011;1680;48.106;11.708;2022-09-27T12:11:17;0.80;;;0.80;;
1831;SDS011;1680;48.106;11.708;2022-09-27T12:13:48;1.70;;;0.87;;
1831;SDS011;1680;48.106;11.708;2022-09-27T12:16:15;0.87;;;0.87;;
1831;SDS011;1680;48.106;11.708;2022-09-27T12:18:42;1.13;;;0.90;;
1831;SDS011;1680;48.106;11.708;2022-09-27T12:21:11;0.87;;;0.87;;
1831;SDS011;1680;48.106;11.708;2022-09-27T12:23:38;0.70;;;0.70;;
1831;SDS011;1680;48.106;11.708;2022-09-27T12:26:07;0.80;;;0.80;;
1831;SDS011;1680;48.106;11.708;2022-09-27T12:28:36;0.70;;;0.70;;
1831;SDS011;1680;48.106;11.708;2022-09-27T12:31:08;1.10;;;0.90;;
1831;SDS011;1680;48.106;11.708;2022-09-27T12:33:41;2.53;;;0.90;;
1831;SDS011;1680;48.106;11.708;2022-09-27T12:36:09;0.90;;;0.73;;
1831;SDS011;1680;48.106;11.708;2022-09-27T12:38:41;1.00;;;0.70;;
1831;SDS011;1680;48.106;11.708;2022-09-27T12:41:10;1.07;;;0.70;;
1831;SDS011;1680;48.106;11.708;2022-09-27T12:43:38;1.53;;;0.93;;
1831;SDS011;1680;48.106;11.708;2022-09-27T12:46:09;1.87;;;1.00;;
1831;SDS011;1680;48.106;11.708;2022-09-27T12:48:40;0.90;;;0.90;;
1831;SDS011;1680;48.106;11.708;2022-09-27T12:51:10;1.53;;;1.00;;
1831;SDS011;1680;48.106;11.708;2022-09-27T12:53:40;1.37;;;1.00;;
1831;SDS011;1680;48.106;11.708;2022-09-27T12:56:12;2.20;;;0.80;;
1831;SDS011;1680;48.106;11.708;2022-09-27T12:58:56;1.23;;;0.90;;
1831;SDS011;1680;48.106;11.708;2022-09-27T13:01:32;4.40;;;1.20;;
1831;SDS011;1680;48.106;11.708;2022-09-27T13:04:06;0.90;;;0.70;;
1831;SDS011;1680;48.106;11.708;2022-09-27T13:06:43;1.17;;;0.97;;
1831;SDS011;1680;48.106;11.708;2022-09-27T13:09:20;1.00;;;0.90;;
1831;SDS011;1680;48.106;11.708;2022-09-27T13:11:51;2.20;;;1.00;;
1831;SDS011;1680;48.106;11.708;2022-09-27T13:14:23;1.20;;;1.00;;
1831;SDS011;1680;48.106;11.708;2022-09-27T13:16:51;1.50;;;1.13;;
1831;SDS011;1680;48.106;11.708;2022-09-27T13:22:03;1.37;;;1.20;;
1831;SDS011;1680;48.106;11.708;2022-09-27T13:27:39;1.00;;;0.90;;
1831;SDS011;1680;48.106;11.708;2022-09-27T13:35:42;1.10;;;0.83;;
1831;SDS011;1680;48.106;11.708;2022-09-27T13:38:28;2.77;;;1.30;;
1831;SDS011;1680;48.106;11.708;2022-09-27T13:40:55;2.20;;;0.90;;
1831;SDS011;1680;48.106;11.708;2022-09-27T13:43:50;2.40;;;0.90;;
1831;SDS011;1680;48.106;11.708;2022-09-27T13:46:19;1.90;;;0.80;;
1831;SDS011;1680;48.106;11.708;2022-09-27T13:48:48;1.00;;;1.00;;
1831;SDS011;1680;48.106;11.708;2022-09-27T13:51:19;1.23;;;0.90;;
1831;SDS011;1680;48.106;11.708;2022-09-27T13:53:54;1.50;;;0.90;;
1831;SDS011;1680;48.106;11.708;2022-09-27T13:59:03;1.57;;;1.10;;
1831;SDS011;1680;48.106;11.708;2022-09-27T14:01:34;3.13;;;0.90;;
1831;SDS011;1680;48.106;11.708;2022-09-27T14:04:02;3.03;;;0.90;;
1831;SDS011;1680;48.106;11.708;2022-09-27T14:06:32;1.70;;;1.10;;
1831;SDS011;1680;48.106;11.708;2022-09-27T14:09:02;3.90;;;1.30;;
1831;SDS011;1680;48.106;11.708;2022-09-27T14:11:29;1.53;;;1.03;;
1831;SDS011;1680;48.106;11.708;2022-09-27T14:13:57;1.43;;;1.07;;
1831;SDS011;1680;48.106;11.708;2022-09-27T14:16:27;1.70;;;1.00;;
1831;SDS011;1680;48.106;11.708;2022-09-27T14:18:56;1.63;;;1.00;;
1831;SDS011;1680;48.106;11.708;2022-09-27T14:21:27;1.67;;;1.10;;
1831;SDS011;1680;48.106;11.708;2022-09-27T14:26:37;1.47;;;0.90;;
1831;SDS011;1680;48.106;11.708;2022-09-27T14:29:13;1.03;;;0.70;;
1831;SDS011;1680;48.106;11.708;2022-09-27T14:31:40;0.70;;;0.70;;
1831;SDS011;1680;48.106;11.708;2022-09-27T14:34:07;0.60;;;0.60;;
1831;SDS011;1680;48.106;11.708;2022-09-27T14:36:34;1.20;;;0.90;;
1831;SDS011;1680;48.106;11.708;2022-09-27T14:39:21;0.67;;;0.57;;
1831;SDS011;1680;48.106;11.708;2022-09-27T14:41:49;0.70;;;0.60;;
1831;SDS011;1680;48.106;11.708;2022-09-27T14:44:16;0.60;;;0.60;;
1831;SDS011;1680;48.106;11.708;2022-09-27T14:46:43;0.50;;;0.50;;
1831;SDS011;1680;48.106;11.708;2022-09-27T14:49:10;0.70;;;0.63;;
1831;SDS011;1680;48.106;11.708;2022-09-27T14:51:38;0.90;;;0.73;;
1831;SDS011;1680;48.106;11.708;2022-09-27T14:54:05;0.83;;;0.70;;
1831;SDS011;1680;48.106;11.708;2022-09-27T14:56:35;0.93;;;0.63;;
1831;SDS011;1680;48.106;11.708;2022-09-27T14:59:06;1.07;;;0.87;;
1831;SDS011;1680;48.106;11.708;2022-09-27T15:01:35;1.10;;;0.60;;
1831;SDS011;1680;48.106;11.708;2022-09-27T15:04:04;0.70;;;0.70;;
1831;SDS011;1680;48.106;11.708;2022-09-27T15:06:31;1.63;;;0.70;;
1831;SDS011;1680;48.106;11.708;2022-09-27T15:08:58;1.97;;;0.60;;
1831;SDS011;1680;48.106;11.708;2022-09-27T15:11:25;0.73;;;0.73;;
1831;SDS011;1680;48.106;11.708;2022-09-27T15:13:53;0.70;;;0.70;;
1831;SDS011;1680;48.106;11.708;2022-09-27T15:16:21;1.20;;;1.03;;
1831;SDS011;1680;48.106;11.708;2022-09-27T15:18:49;1.33;;;0.87;;
1831;SDS011;1680;48.106;11.708;2022-09-27T15:21:27;0.80;;;0.73;;
1831;SDS011;1680;48.106;11.708;2022-09-27T15:23:53;1.07;;;0.90;;
1831;SDS011;1680;48.106;11.708;2022-09-27T15:26:21;1.30;;;0.80;;
1831;SDS011;1680;48.106;11.708;2022-09-27T15:28:50;0.70;;;0.70;;
1831;SDS011;1680;48.106;11.708;2022-09-27T15:31:17;1.10;;;0.80;;
1831;SDS011;1680;48.106;11.708;2022-09-27T15:33:51;1.27;;;1.17;;
1831;SDS011;1680;48.106;11.708;2022-09-27T15:36:18;0.87;;;0.87;;
1831;SDS011;1680;48.106;11.708;2022-09-27T15:39:05;2.00;;;0.70;;
1831;SDS011;1680;48.106;11.708;2022-09-27T15:41:58;2.40;;;2.00;;